Chitral Weather



Chitral's Current Weather

Temprature -1.964o broken clouds

broken clouds

Rain: 0 %

Min Temprature-1.964o
Max Temprature-1.964o
Humidity60
Wind Speed2.59 m/h
Sun Rise05:32:49
Sun Set18:50:07
Current Time: 21-Apr-2019 05:42:27
Lat/Lon: 35.85, 71.79




Chitral's Geo Location



Chitral's Weather Forecast

Time Overall Temp Min Temp Max Temp Humidity Wind Speed Rain
21-Apr-2019 (Sun)
08:00:00 broken clouds 0.750 0.749 0.750 52 1.88 m/h 0 %
11:00:00 scattered clouds 3.250 3.250 3.250 49 0.96 m/h 0 %
14:00:00 clear sky 4.650 4.650 4.650 47 1.42 m/h 0 %
17:00:00 clear sky 4.350 4.350 4.350 42 1.78 m/h 0 %
20:00:00 scattered clouds 1.650 1.650 1.650 46 1.08 m/h 0 %
23:00:00 broken clouds 0.420 0.420 0.420 54 0.96 m/h 0 %
22-Apr-2019 (Mon)
02:00:00 light snow -0.730 -0.730 -0.730 63 1.23 m/h 0 %
05:00:00 light snow -2.296 -2.296 -2.296 65 1.81 m/h 0 %
08:00:00 clear sky 0.696 0.696 0.696 55 1.86 m/h 0 %
11:00:00 clear sky 4.220 4.220 4.220 41 1.31 m/h 0 %
14:00:00 clear sky 5.615 5.615 5.615 32 2.19 m/h 0 %
17:00:00 clear sky 5.131 5.131 5.131 31 2.12 m/h 0 %
20:00:00 clear sky 2.350 2.350 2.350 35 1.29 m/h 0 %
23:00:00 clear sky 0.296 0.296 0.296 39 1.09 m/h 0 %
23-Apr-2019 (Tue)
02:00:00 scattered clouds -0.823 -0.823 -0.823 42 1.24 m/h 0 %
05:00:00 scattered clouds -1.534 -1.534 -1.534 44 1.47 m/h 0 %
08:00:00 clear sky 1.327 1.327 1.327 37 0.79 m/h 0 %
11:00:00 scattered clouds 4.250 4.250 4.250 31 2.71 m/h 0 %
14:00:00 broken clouds 5.550 5.550 5.550 33 3.03 m/h 0 %
17:00:00 light snow 2.950 2.950 2.950 48 1.97 m/h 0 %
20:00:00 snow -0.372 -0.372 -0.372 72 1.42 m/h 0 %
23:00:00 snow -1.750 -1.750 -1.750 87 1.42 m/h 0 %
24-Apr-2019 (Wed)
02:00:00 snow -1.818 -1.818 -1.818 89 1.59 m/h 0 %
05:00:00 light snow -2.276 -2.276 -2.276 87 1.74 m/h 0 %
08:00:00 snow -1.750 -1.750 -1.750 87 0.72 m/h 0 %
11:00:00 snow -0.792 -0.792 -0.792 93 2.86 m/h 0 %
14:00:00 snow -0.250 -0.250 -0.250 96 2.36 m/h 0 %
17:00:00 snow -0.150 -0.150 -0.150 93 3.02 m/h 0 %
20:00:00 snow -0.745 -0.745 -0.745 94 3.24 m/h 0 %
23:00:00 light snow -1.355 -1.355 -1.355 93 2.41 m/h 0 %
25-Apr-2019 (Thu)
02:00:00 broken clouds -3.450 -3.450 -3.450 86 2.13 m/h 0 %
05:00:00 light snow -3.978 -3.978 -3.978 87 2.38 m/h 0 %
08:00:00 light snow -1.680 -1.680 -1.680 84 3.8 m/h 0 %
11:00:00 light snow -0.610 -0.610 -0.610 93 5.11 m/h 0 %
14:00:00 snow -0.150 -0.150 -0.150 94 4.36 m/h 0 %
17:00:00 snow 0.111 0.111 0.111 81 4.38 m/h 0 %
20:00:00 light snow -3.475 -3.475 -3.475 84 2.73 m/h 0 %
23:00:00 light snow -4.257 -4.257 -4.257 87 2.52 m/h 0 %
26-Apr-2019 (Fri)
02:00:00 broken clouds -6.368 -6.368 -6.368 83 1.96 m/h 0 %
05:00:00 scattered clouds -8.284 -8.284 -8.284 70 1.62 m/h 0 %

Famous Cities (60)